Flight Track Log - Related Links

Times and Time Zones

All times are in EDT time to prevent confusion due to time zone crossing. See the JZA8121 flight status page for this flight to view local times or setup timezone preferences in your user account.

Time Position Orientation Groundspeed Altitude Reporting Facility
EDT Latitude Longitude Course Direction KTS MPH feet Rate Location/Type
Wed 11:48:43 AM 49.1500 -123.2167 156° South 130 150 1,500  Level Vancouver Center
Wed 11:49:43 AM 49.1167 -123.2667 224° Southwest 160 184 2,800 1,250 Climbing Vancouver Center
Wed 11:50:43 AM 49.0833 -123.2667 180° South 180 207 4,000 1,350 Climbing Vancouver Center
Wed 11:51:43 AM 49.0333 -123.2333 156° South 180 207 5,500 1,400 Climbing Vancouver Center
Wed 11:52:00 AM 48.8106 -123.0053 162° South  Level FlightAware Approximate
Wed 11:52:43 AM 48.9833 -123.1833 147° Southeast 190 219 6,800  Level Vancouver Center
Wed 11:53:00 AM 48.7510 -122.9784 156° South  Level FlightAware Approximate
Wed 11:53:43 AM 48.9333 -123.1667 168° South 190 219 8,100  Level Vancouver Center
Wed 11:54:00 AM 48.6932 -122.9399 156° South  Level FlightAware Approximate
Wed 11:54:43 AM 48.8833 -123.1333 156° South 200 230 9,300  Level Vancouver Center
Wed 11:55:43 AM 48.8333 -123.0833 147° Southeast 210 242 10,600 1,200 Climbing Vancouver Center
Wed 11:56:43 AM 48.7833 -123.0667 168° South 210 242 11,700 1,100 Climbing Vancouver Center
Wed 11:57:43 AM 48.7167 -123.0167 154° Southeast 220 253 12,800 1,150 Climbing Vancouver Center
Wed 11:58:43 AM 48.6667 -122.9833 156° South 220 253 14,000 1,100 Climbing Vancouver Center
Wed 11:59:43 AM 48.6000 -122.9667 171° South 230 265 15,000 1,020 Climbing Vancouver Center
Wed 12:00:23 PM 48.5831 -122.9361 130° Southeast 232 267 15,700 1,010 Climbing Seattle Center
Wed 12:01:24 PM 48.5225 -122.9022 160° South 234 269 16,700 992 Climbing Seattle Center
Wed 12:02:24 PM 48.4622 -122.8692 160° South 234 269 17,700 694 Climbing Seattle Center
Wed 12:03:25 PM 48.4011 -122.8342 159° South 237 273 18,100 639 Climbing Seattle Center
Wed 12:04:26 PM 48.3378 -122.7992 160° South 242 278 19,000 787 Climbing Seattle Center
Wed 12:05:27 PM 48.2756 -122.7644 160° South 242 278 19,700 836 Climbing Seattle Center
Wed 12:06:28 PM 48.2108 -122.7308 161° South 246 283 20,700 836 Climbing Seattle Center
Wed 12:07:29 PM 48.1483 -122.6950 159° South 245 282 21,400 787 Climbing Seattle Center
Wed 12:08:30 PM 48.0708 -122.6519 160° South 249 287 22,300 738 Climbing Seattle Center
Wed 12:09:31 PM 48.0053 -122.6164 160° South 254 292 22,900 231 Climbing Seattle Center
Wed 12:11:32 PM 47.8628 -122.5397 160° South 285 328 23,000 33 Climbing Seattle Center
Wed 12:12:33 PM 47.7861 -122.4983 160° South 295 339 23,000  Level Seattle Center
Wed 12:13:34 PM 47.7078 -122.4558 160° South 300 345 23,000  Level Seattle Center
Wed 12:14:35 PM 47.6286 -122.4133 160° South 302 348 23,000  Level Seattle Center
Wed 12:15:36 PM 47.5442 -122.3672 160° South 301 346 23,000  Level Seattle Center
Wed 12:16:37 PM 47.4664 -122.3261 160° South 299 344 23,000  Level Seattle Center
Wed 12:17:38 PM 47.3847 -122.3075 171° South 300 345 23,000  Level Seattle Center
Wed 12:18:39 PM 47.3014 -122.3092 181° South 303 349 23,000  Level Seattle Center
Wed 12:19:39 PM 47.2183 -122.3106 181° South 301 346 23,000  Level Seattle Center
Wed 12:20:40 PM 47.1358 -122.3111 180° South 299 344 23,000  Level Seattle Center
Wed 12:21:41 PM 47.0519 -122.3097 179° South 302 348 23,000 -197 Level Seattle Center
Wed 12:22:42 PM 46.9522 -122.3100 180° South 301 346 22,600 -836 Descending Seattle Center
Wed 12:23:43 PM 46.8619 -122.3108 180° South 323 372 21,300 -1,279 Descending Seattle Center
Wed 12:24:44 PM 46.7706 -122.3114 180° South 330 380 20,000 -1,289 Descending Seattle Center
Wed 12:25:44 PM 46.6794 -122.3086 179° South 330 380 18,700 -1,091 Descending Seattle Center
Wed 12:26:45 PM 46.5883 -122.3083 180° South 328 377 17,800 -1,230 Descending Seattle Center
Wed 12:27:46 PM 46.5000 -122.3089 180° South 322 371 16,200 -1,525 Descending Seattle Center
Wed 12:28:43 PM 46.4083 -122.3131 182° South 310 357 14,800 -1,279 Descending Seattle Center
Wed 12:29:48 PM 46.3306 -122.3086 178° South 302 348 13,600 -1,218 Descending Seattle Center
Wed 12:30:56 PM 46.2242 -122.3247 186° South 290 334 12,100 -1,131 Descending Seattle Center
Wed 12:31:50 PM 46.1725 -122.3556 202° Southwest 286 329 11,300 -1,148 Descending Seattle Center
Wed 12:32:51 PM 46.0844 -122.4017 200° South 281 323 9,900 -1,164 Descending Seattle Center
Wed 12:34:04 PM 45.9856 -122.3897 175° South 273 314 8,700 -985 Descending Seattle Center
Wed 12:35:05 PM 45.9114 -122.3867 178° South 268 308 7,700 -936 Descending Seattle Center
Wed 12:35:53 PM 45.8575 -122.3875 181° South 258 297 7,000 -826 Descending Seattle Center
Wed 12:36:54 PM 45.7875 -122.3883 180° South 253 291 6,200 -759 Descending Seattle Center
Wed 12:37:12 PM 45.7636 -122.3858 176° South 250 288 6,000 -1,082 Descending Seattle Center
Wed 12:37:55 PM 45.7178 -122.3839 178° South 252 290 5,100 -1,212 Descending Seattle Center
Wed 12:38:56 PM 45.6506 -122.3847 180° South 246 283 3,900 -1,231 Descending Seattle Center
Wed 12:39:13 PM 45.6272 -122.3867 183° South 215 247 3,500 -1,180 Descending Seattle Center
Wed 12:39:57 PM 45.5933 -122.3875 181° South 216 249 2,700 -896 Descending Seattle Center
Wed 12:40:20 PM 45.5650 -122.3906 184° South 206 237 2,500 -295 Descending Seattle Center
Wed 12:40:58 PM 45.5472 -122.4192 228° Southwest 200 230 2,400 -436 Descending Seattle Center
Wed 12:41:15 PM 45.5450 -122.4514 264° West 198 228 2,100 -689 Descending Seattle Center
Wed 12:41:59 PM 45.5547 -122.4928 289° West 192 221 1,700 -700 Descending Seattle Center
Wed 12:42:15 PM 45.5617 -122.5122 297° West 151 174 1,400 -1,125 Descending Seattle Center

Login

Don't have an account? Register now (free) for customized features, flight alerts, and more!